createdAt,value
2023-05-05T00:00:35.246Z,29.17
2023-05-05T00:01:35.234Z,29.22
2023-05-05T00:02:35.297Z,29.19
2023-05-05T00:03:35.453Z,29.17
2023-05-05T00:04:35.204Z,29.22
2023-05-05T00:05:35.230Z,29.19
2023-05-05T00:06:35.194Z,29.14
2023-05-05T00:07:35.185Z,29.17
2023-05-05T00:08:35.169Z,29.23
2023-05-05T00:09:35.182Z,29.27
2023-05-05T00:10:35.182Z,29.32
2023-05-05T00:11:35.168Z,29.23
2023-05-05T00:12:35.185Z,29.31
2023-05-05T00:13:35.153Z,29.32
2023-05-05T00:14:35.149Z,29.33
2023-05-05T00:15:35.130Z,29.30
2023-05-05T00:16:35.151Z,29.37
2023-05-05T00:17:35.179Z,29.32
2023-05-05T00:18:35.106Z,29.32
2023-05-05T00:19:35.118Z,29.39
2023-05-05T00:20:35.141Z,29.34
2023-05-05T00:21:35.101Z,29.40
2023-05-05T00:22:35.074Z,29.40
2023-05-05T00:23:35.071Z,29.42
2023-05-05T00:24:35.067Z,29.42
2023-05-05T00:25:35.089Z,29.38
2023-05-05T00:26:35.092Z,29.43
2023-05-05T00:27:35.051Z,29.48
2023-05-05T00:28:35.063Z,29.41
2023-05-05T00:29:35.033Z,29.46
2023-05-05T00:30:35.024Z,29.53
2023-05-05T00:31:35.088Z,29.48
2023-05-05T00:32:35.032Z,29.47
2023-05-05T00:33:35.016Z,29.45
2023-05-05T00:34:35.054Z,29.51
2023-05-05T00:35:35.017Z,29.46
2023-05-05T00:36:35.018Z,29.46
2023-05-05T00:37:34.993Z,29.40
2023-05-05T00:38:34.996Z,29.44
2023-05-05T00:39:35.011Z,29.42
2023-05-05T00:40:34.996Z,29.47
2023-05-05T00:41:34.986Z,29.52
2023-05-05T00:42:34.962Z,29.44
2023-05-05T00:43:34.968Z,29.46
2023-05-05T00:44:34.941Z,29.41
2023-05-05T00:45:34.955Z,29.40
2023-05-05T00:46:34.955Z,29.39
2023-05-05T00:47:34.965Z,29.43
2023-05-05T00:48:34.930Z,29.43
2023-05-05T00:49:34.944Z,29.43
2023-05-05T00:50:34.913Z,29.35
2023-05-05T00:51:34.895Z,29.39
2023-05-05T00:52:34.892Z,29.37
2023-05-05T00:53:34.881Z,29.45
2023-05-05T00:54:34.877Z,29.37
2023-05-05T00:55:34.893Z,29.35
2023-05-05T00:56:34.881Z,29.33
2023-05-05T00:57:34.859Z,29.33
2023-05-05T00:58:34.891Z,29.37
2023-05-05T00:59:34.924Z,29.33
2023-05-05T01:00:34.855Z,29.34
2023-05-05T01:01:34.885Z,29.32
2023-05-05T01:02:34.889Z,29.33
2023-05-05T01:03:34.958Z,29.32
2023-05-05T01:04:34.822Z,29.39
2023-05-05T01:05:34.808Z,29.32
2023-05-05T01:06:34.791Z,29.34
2023-05-05T01:07:34.810Z,29.34
2023-05-05T01:08:34.809Z,29.35
2023-05-05T01:09:34.786Z,29.36
2023-05-05T01:10:34.786Z,29.35
2023-05-05T01:11:34.769Z,29.34
2023-05-05T01:12:34.797Z,29.36
2023-05-05T01:13:34.762Z,29.33
2023-05-05T01:14:34.745Z,29.36
2023-05-05T01:15:34.750Z,29.34
2023-05-05T01:16:34.852Z,29.34
2023-05-05T01:17:34.775Z,29.39
2023-05-05T01:18:34.727Z,29.38
2023-05-05T01:19:34.700Z,29.35
2023-05-05T01:20:34.701Z,29.35
2023-05-05T01:21:34.701Z,29.37
2023-05-05T01:22:34.701Z,29.39
2023-05-05T01:23:34.670Z,29.36
2023-05-05T01:24:34.680Z,29.35
2023-05-05T01:25:34.685Z,29.35
2023-05-05T01:26:34.684Z,29.31
2023-05-05T01:27:34.644Z,29.35
2023-05-05T01:28:34.675Z,29.35
2023-05-05T01:29:34.652Z,29.34
2023-05-05T01:30:34.628Z,29.35
2023-05-05T01:31:34.686Z,29.33
2023-05-05T01:32:34.647Z,29.35
2023-05-05T01:33:34.633Z,29.36
2023-05-05T01:34:34.610Z,29.35
2023-05-05T01:35:34.592Z,29.35
2023-05-05T01:36:34.602Z,29.38
2023-05-05T01:37:34.599Z,29.37
2023-05-05T01:38:34.570Z,29.35
2023-05-05T01:39:34.567Z,29.38
2023-05-05T01:40:34.569Z,29.36
2023-05-05T01:41:34.601Z,29.36
2023-05-05T01:42:34.543Z,29.39
2023-05-05T01:43:34.549Z,29.41
2023-05-05T01:44:34.526Z,29.39
2023-05-05T01:45:34.630Z,29.38
2023-05-05T01:46:34.555Z,29.39
2023-05-05T01:47:34.542Z,29.40
2023-05-05T01:48:34.511Z,29.41
2023-05-05T01:49:34.529Z,29.39
2023-05-05T01:50:34.533Z,29.38
2023-05-05T01:51:34.482Z,29.44
2023-05-05T01:52:34.491Z,29.41
2023-05-05T01:53:34.482Z,29.40
2023-05-05T01:54:34.465Z,29.44
2023-05-05T01:55:34.520Z,29.45
2023-05-05T01:56:34.472Z,29.44
2023-05-05T01:57:34.446Z,29.44
2023-05-05T01:58:34.453Z,29.43
2023-05-05T01:59:34.432Z,29.47
2023-05-05T02:00:34.424Z,29.47
2023-05-05T02:01:34.474Z,29.47
2023-05-05T02:02:34.518Z,29.46
2023-05-05T02:03:34.449Z,29.47
2023-05-05T02:04:34.403Z,29.47
2023-05-05T02:05:34.421Z,29.46
2023-05-05T02:06:34.400Z,29.45
2023-05-05T02:07:34.395Z,29.46
2023-05-05T02:08:34.380Z,29.44
2023-05-05T02:09:34.361Z,29.46
2023-05-05T02:10:34.353Z,29.43
2023-05-05T02:11:34.370Z,29.44
2023-05-05T02:12:34.370Z,29.44
2023-05-05T02:13:34.376Z,29.44
2023-05-05T02:14:34.343Z,29.40
2023-05-05T02:15:34.363Z,29.39
2023-05-05T02:16:34.340Z,29.43
2023-05-05T02:17:34.372Z,29.43
2023-05-05T02:18:34.347Z,29.42
2023-05-05T02:19:34.307Z,29.44
2023-05-05T02:20:34.293Z,29.45
2023-05-05T02:21:34.309Z,29.45
2023-05-05T02:22:34.319Z,29.44
2023-05-05T02:23:34.322Z,29.43
2023-05-05T02:24:34.271Z,29.43
2023-05-05T02:25:34.273Z,29.42
2023-05-05T02:26:34.260Z,29.43
2023-05-05T02:27:34.260Z,29.43
2023-05-05T02:28:34.277Z,29.41
2023-05-05T02:29:34.237Z,29.43
2023-05-05T02:30:34.262Z,29.40
2023-05-05T02:31:34.291Z,29.39
2023-05-05T02:32:34.404Z,29.39
2023-05-05T02:33:34.329Z,29.39
2023-05-05T02:34:34.332Z,29.40
2023-05-05T02:35:34.378Z,29.40
2023-05-05T02:36:34.376Z,29.38
2023-05-05T02:37:34.370Z,29.40
2023-05-05T02:38:34.394Z,29.39
2023-05-05T02:39:34.402Z,29.38
2023-05-05T02:40:34.418Z,29.38
2023-05-05T02:41:34.430Z,29.40
2023-05-05T02:42:34.450Z,29.39
2023-05-05T02:43:34.453Z,29.37
2023-05-05T02:44:34.475Z,29.36
2023-05-05T02:45:34.473Z,29.39
2023-05-05T02:46:34.530Z,29.38
2023-05-05T02:47:34.534Z,29.39
2023-05-05T02:48:34.508Z,29.38
2023-05-05T02:49:34.513Z,29.36
2023-05-05T02:50:34.528Z,29.38
2023-05-05T02:51:34.559Z,29.34
2023-05-05T02:52:34.567Z,29.36
2023-05-05T02:53:34.571Z,29.36
2023-05-05T02:54:34.538Z,29.35
2023-05-05T02:55:34.556Z,29.35
2023-05-05T02:56:34.541Z,29.36
2023-05-05T02:57:34.542Z,29.33
2023-05-05T02:58:34.542Z,29.34
2023-05-05T02:59:34.553Z,29.34
2023-05-05T03:00:34.533Z,29.34
2023-05-05T03:01:34.613Z,29.34
2023-05-05T03:02:34.621Z,29.32
2023-05-05T03:03:34.657Z,29.31
2023-05-05T03:04:34.581Z,29.31
2023-05-05T03:05:34.579Z,29.33
2023-05-05T03:06:34.613Z,29.33
2023-05-05T03:07:34.626Z,29.32
2023-05-05T03:08:34.632Z,29.33
2023-05-05T03:09:34.679Z,29.30
2023-05-05T03:10:34.649Z,29.32
2023-05-05T03:11:34.654Z,29.28
2023-05-05T03:12:34.717Z,29.31
2023-05-05T03:13:34.702Z,29.30
2023-05-05T03:14:34.737Z,29.32
2023-05-05T03:15:34.721Z,29.30
2023-05-05T03:16:34.762Z,29.29
2023-05-05T03:17:34.727Z,29.28
2023-05-05T03:18:34.725Z,29.28
2023-05-05T03:19:34.732Z,29.28
2023-05-05T03:20:34.731Z,29.27
2023-05-05T03:21:34.781Z,29.26
2023-05-05T03:22:34.752Z,29.26
2023-05-05T03:23:34.760Z,29.24
2023-05-05T03:24:34.769Z,29.25
2023-05-05T03:25:34.793Z,29.25
2023-05-05T03:26:34.803Z,29.25
2023-05-05T03:27:34.820Z,29.26
2023-05-05T03:28:34.833Z,29.23
2023-05-05T03:29:34.871Z,29.25
2023-05-05T03:30:34.893Z,29.23
2023-05-05T03:31:34.952Z,29.26
2023-05-05T03:32:34.942Z,29.26
2023-05-05T03:33:34.926Z,29.27
2023-05-05T03:34:34.965Z,29.25
2023-05-05T03:35:34.970Z,29.24
2023-05-05T03:36:34.979Z,29.24
2023-05-05T03:37:34.963Z,29.24
2023-05-05T03:38:34.979Z,29.22
2023-05-05T03:39:34.979Z,29.25
2023-05-05T03:40:43.728Z,29.25
2023-05-05T03:41:36.004Z,29.26
2023-05-05T03:42:34.989Z,29.27
2023-05-05T03:43:34.983Z,29.24
2023-05-05T03:44:34.977Z,29.27
2023-05-05T03:45:34.984Z,29.26
2023-05-05T03:46:34.958Z,29.28
2023-05-05T03:47:34.957Z,29.29
2023-05-05T03:48:34.937Z,29.27
2023-05-05T03:49:34.947Z,29.27
2023-05-05T03:50:34.939Z,29.29
2023-05-05T03:51:34.934Z,29.29
2023-05-05T03:52:34.920Z,29.29
2023-05-05T03:53:34.929Z,29.28
2023-05-05T03:54:34.902Z,29.30
2023-05-05T03:55:34.901Z,29.29
2023-05-05T03:56:34.915Z,29.27
2023-05-05T03:57:34.942Z,29.28
2023-05-05T03:58:35.070Z,29.28
2023-05-05T03:59:34.967Z,29.29
2023-05-05T04:00:34.973Z,29.29
2023-05-05T04:01:34.999Z,29.28
2023-05-05T04:02:35.143Z,29.26
2023-05-05T04:03:35.067Z,29.28
2023-05-05T04:04:35.111Z,29.27
2023-05-05T04:05:35.026Z,29.28
2023-05-05T04:06:35.040Z,29.30
2023-05-05T04:07:35.040Z,29.27
2023-05-05T04:08:35.058Z,29.29
2023-05-05T04:09:35.061Z,29.31
2023-05-05T04:10:35.049Z,29.29
2023-05-05T04:11:35.055Z,29.30
2023-05-05T04:12:35.104Z,29.28
2023-05-05T04:13:35.049Z,29.29
2023-05-05T04:14:35.041Z,29.27
2023-05-05T04:15:35.103Z,29.28
2023-05-05T04:16:35.052Z,29.28
2023-05-05T04:17:35.156Z,29.27
2023-05-05T04:18:35.087Z,29.28
2023-05-05T04:19:35.098Z,29.30
2023-05-05T04:20:35.088Z,29.28
2023-05-05T04:21:35.124Z,29.27
2023-05-05T04:22:35.167Z,29.27
2023-05-05T04:23:35.175Z,29.27
2023-05-05T04:24:35.192Z,29.26
2023-05-05T04:25:35.245Z,29.28
2023-05-05T04:26:35.222Z,29.26
2023-05-05T04:27:35.226Z,29.26
2023-05-05T04:28:35.238Z,29.26
2023-05-05T04:29:35.276Z,29.25
2023-05-05T04:30:35.307Z,29.27
2023-05-05T04:31:35.349Z,29.24
2023-05-05T04:32:35.380Z,29.24
2023-05-05T04:33:35.351Z,29.23
2023-05-05T04:34:35.396Z,29.24
2023-05-05T04:35:35.429Z,29.23
2023-05-05T04:36:35.453Z,29.21
2023-05-05T04:37:35.486Z,29.24
2023-05-05T04:38:35.552Z,29.22
2023-05-05T04:39:35.553Z,29.20
2023-05-05T04:40:35.574Z,29.22
2023-05-05T04:41:35.594Z,29.21
2023-05-05T04:42:35.630Z,29.20
2023-05-05T04:43:35.645Z,29.19
2023-05-05T04:44:35.678Z,29.21
2023-05-05T04:45:35.692Z,29.21
2023-05-05T04:46:35.774Z,29.22
2023-05-05T04:47:35.768Z,29.23
2023-05-05T04:48:35.804Z,29.22
2023-05-05T04:49:35.807Z,29.22
2023-05-05T04:50:35.828Z,29.21
2023-05-05T04:51:35.872Z,29.23
2023-05-05T04:52:35.882Z,29.24
2023-05-05T04:53:35.921Z,29.23
2023-05-05T04:54:35.952Z,29.24
2023-05-05T04:55:35.994Z,29.23
2023-05-05T04:56:36.064Z,29.20
2023-05-05T04:57:36.114Z,29.23
2023-05-05T04:58:36.180Z,29.21
2023-05-05T04:59:36.225Z,29.24
2023-05-05T05:00:36.281Z,29.19
2023-05-05T05:01:38.582Z,29.17
2023-05-05T05:02:36.476Z,29.15
2023-05-05T05:03:36.539Z,29.11
2023-05-05T05:04:36.521Z,29.12
2023-05-05T05:05:36.591Z,29.07
2023-05-05T05:06:36.657Z,29.08
2023-05-05T05:07:36.708Z,29.01
2023-05-05T05:08:36.776Z,29.00
2023-05-05T05:09:36.848Z,29.02
2023-05-05T05:10:36.881Z,28.98
2023-05-05T05:11:36.951Z,28.95
2023-05-05T05:12:37.069Z,28.93
2023-05-05T05:13:37.062Z,28.89
2023-05-05T05:14:37.094Z,28.90
2023-05-05T05:15:37.137Z,28.88
2023-05-05T05:16:37.282Z,28.86
2023-05-05T05:17:37.253Z,28.84
2023-05-05T05:18:37.335Z,28.81
2023-05-05T05:19:37.356Z,28.80
2023-05-05T05:20:37.408Z,28.78
2023-05-05T05:21:37.459Z,28.79
2023-05-05T05:22:37.524Z,28.80
2023-05-05T05:23:37.581Z,28.80
2023-05-05T05:24:37.647Z,28.81
2023-05-05T05:25:37.649Z,28.82
2023-05-05T05:26:37.737Z,28.83
2023-05-05T05:27:37.735Z,28.86
2023-05-05T05:28:37.783Z,29.02
2023-05-05T05:29:37.863Z,29.06
2023-05-05T05:30:37.900Z,29.30
2023-05-05T05:31:38.385Z,29.40
2023-05-05T05:32:38.013Z,29.57
2023-05-05T05:33:38.350Z,29.67
2023-05-05T05:34:38.171Z,29.81
2023-05-05T05:35:38.116Z,29.88
2023-05-05T05:36:38.179Z,30.01
2023-05-05T05:37:38.203Z,30.22
2023-05-05T05:38:38.249Z,30.20
2023-05-05T05:39:38.303Z,30.19
2023-05-05T05:40:38.316Z,30.72
2023-05-05T05:41:38.345Z,30.52
2023-05-05T05:42:38.351Z,30.73
2023-05-05T05:43:38.849Z,30.75
2023-05-05T05:44:38.412Z,30.77
2023-05-05T05:45:38.438Z,30.80
2023-05-05T05:46:38.559Z,30.79
2023-05-05T05:47:38.481Z,30.90
2023-05-05T05:48:38.433Z,31.04
2023-05-05T05:49:38.434Z,30.98
2023-05-05T05:50:38.437Z,31.43
2023-05-05T05:51:38.438Z,31.37
2023-05-05T05:52:38.432Z,31.28
2023-05-05T05:53:38.482Z,31.40
2023-05-05T05:54:38.438Z,31.66
2023-05-05T05:55:38.479Z,31.48
2023-05-05T05:56:38.444Z,31.39
2023-05-05T05:57:38.463Z,31.39
2023-05-05T05:58:38.466Z,31.30
2023-05-05T05:59:38.462Z,31.48
2023-05-05T06:00:38.455Z,31.37
2023-05-05T06:01:38.450Z,31.38
2023-05-05T06:02:38.499Z,31.41
2023-05-05T06:03:38.906Z,31.67
2023-05-05T06:04:38.533Z,31.47
2023-05-05T06:05:38.443Z,31.61
2023-05-05T06:06:38.440Z,31.52
2023-05-05T06:07:38.449Z,31.56
2023-05-05T06:08:38.903Z,31.60
2023-05-05T06:09:38.459Z,31.61
2023-05-05T06:10:38.438Z,31.66
2023-05-05T06:11:38.453Z,31.40
2023-05-05T06:12:38.505Z,31.61
2023-05-05T06:13:38.488Z,31.60
2023-05-05T06:14:38.470Z,31.58
2023-05-05T06:15:38.513Z,31.73
2023-05-05T06:16:38.478Z,31.67
2023-05-05T06:17:38.547Z,31.78
2023-05-05T06:18:38.902Z,31.48
2023-05-05T06:19:38.496Z,31.76
2023-05-05T06:20:38.596Z,31.83
2023-05-05T06:21:38.594Z,31.77
2023-05-05T06:22:38.617Z,31.70
2023-05-05T06:23:38.637Z,31.66
2023-05-05T06:24:38.710Z,31.87
2023-05-05T06:25:38.771Z,31.79
2023-05-05T06:26:38.830Z,31.96
2023-05-05T06:27:38.915Z,31.82
2023-05-05T06:28:38.996Z,31.81
2023-05-05T06:29:38.980Z,31.94
2023-05-05T06:30:39.900Z,31.82
2023-05-05T06:31:39.454Z,31.75
2023-05-05T06:32:39.145Z,31.78
2023-05-05T06:33:39.178Z,32.04
2023-05-05T06:34:39.209Z,31.61
2023-05-05T06:35:39.237Z,31.86
2023-05-05T06:36:39.297Z,31.78
2023-05-05T06:37:39.314Z,31.80
2023-05-05T06:38:39.408Z,32.00
2023-05-05T06:39:39.434Z,31.79
2023-05-05T06:40:39.519Z,31.96
2023-05-05T06:41:39.614Z,32.04
2023-05-05T06:42:39.648Z,31.85
2023-05-05T06:43:39.888Z,31.88
2023-05-05T06:44:39.813Z,31.83
2023-05-05T06:45:40.283Z,31.84
2023-05-05T06:46:40.395Z,32.00
2023-05-05T06:47:39.966Z,31.77
2023-05-05T06:48:40.044Z,32.26
2023-05-05T06:49:40.100Z,32.05
2023-05-05T06:50:40.163Z,31.86
2023-05-05T06:51:41.548Z,32.22
2023-05-05T06:52:40.384Z,32.17
2023-05-05T06:53:40.894Z,32.06
2023-05-05T06:54:40.549Z,32.28
2023-05-05T06:55:40.584Z,32.21
2023-05-05T06:56:40.624Z,32.10
2023-05-05T06:57:40.690Z,31.98
2023-05-05T06:58:40.761Z,32.01
2023-05-05T06:59:40.837Z,32.01
2023-05-05T07:00:41.472Z,32.10
2023-05-05T07:01:40.960Z,31.97
2023-05-05T07:02:41.028Z,32.11
2023-05-05T07:03:41.110Z,32.10
2023-05-05T07:04:41.131Z,32.10
2023-05-05T07:05:41.200Z,32.09
2023-05-05T07:06:41.261Z,32.07
2023-05-05T07:07:41.324Z,32.00
2023-05-05T07:08:41.418Z,31.80
2023-05-05T07:09:41.418Z,31.90
2023-05-05T07:10:41.545Z,31.88
2023-05-05T07:11:41.909Z,32.00
2023-05-05T07:12:41.614Z,31.98
2023-05-05T07:13:41.677Z,31.92
2023-05-05T07:14:41.731Z,31.96
2023-05-05T07:15:41.772Z,31.89
2023-05-05T07:16:41.907Z,31.80
2023-05-05T07:17:41.915Z,31.82
2023-05-05T07:18:41.974Z,31.82
2023-05-05T07:19:42.020Z,31.88
2023-05-05T07:20:42.098Z,32.00
2023-05-05T07:21:42.173Z,31.86
2023-05-05T07:22:42.240Z,31.70
2023-05-05T07:23:42.304Z,31.70
2023-05-05T07:24:42.342Z,31.50
2023-05-05T07:25:42.383Z,31.61
2023-05-05T07:26:42.523Z,31.61
2023-05-05T07:27:42.495Z,31.73
2023-05-05T07:28:42.911Z,31.55
2023-05-05T07:29:42.619Z,31.46
2023-05-05T07:30:42.624Z,31.63
2023-05-05T07:31:42.989Z,31.43
2023-05-05T07:32:42.726Z,31.41
2023-05-05T07:33:42.765Z,31.29
2023-05-05T07:34:42.818Z,31.22
2023-05-05T07:35:42.882Z,31.24
2023-05-05T07:36:42.935Z,31.21
2023-05-05T07:37:43.023Z,31.15
2023-05-05T07:38:43.057Z,31.10
2023-05-05T07:39:43.126Z,31.06
2023-05-05T07:40:43.190Z,31.00
2023-05-05T07:41:43.229Z,30.97
2023-05-05T07:42:43.389Z,30.92
2023-05-05T07:43:44.498Z,30.91
2023-05-05T07:44:43.408Z,30.93
2023-05-05T07:45:43.484Z,30.83
2023-05-05T07:46:43.538Z,30.79
2023-05-05T07:47:43.630Z,30.77
2023-05-05T07:48:43.910Z,30.73
2023-05-05T07:49:43.747Z,30.75
2023-05-05T07:50:43.793Z,30.65
2023-05-05T07:51:43.878Z,30.60
2023-05-05T07:52:46.803Z,30.59
2023-05-05T07:53:45.426Z,30.44
2023-05-05T07:54:43.925Z,30.46
2023-05-05T07:55:43.918Z,30.41
2023-05-05T07:56:43.899Z,30.44
2023-05-05T07:57:43.903Z,30.33
2023-05-05T07:58:43.976Z,30.26
2023-05-05T07:59:43.896Z,30.32
2023-05-05T08:00:43.909Z,30.32
2023-05-05T08:01:44.440Z,30.34
2023-05-05T08:02:44.146Z,30.32
2023-05-05T08:03:44.243Z,30.34
2023-05-05T08:04:44.252Z,30.26
2023-05-05T08:05:44.220Z,30.32
2023-05-05T08:06:44.299Z,30.23
2023-05-05T08:07:44.348Z,30.15
2023-05-05T08:08:44.393Z,30.11
2023-05-05T08:09:44.930Z,30.08
2023-05-05T08:10:44.541Z,30.05
2023-05-05T08:11:44.592Z,30.10
2023-05-05T08:12:44.664Z,30.16
2023-05-05T08:13:44.730Z,30.13
2023-05-05T08:14:44.819Z,30.12
2023-05-05T08:15:44.822Z,30.18
2023-05-05T08:16:44.885Z,30.19
2023-05-05T08:17:45.019Z,30.08
2023-05-05T08:18:45.017Z,30.11
2023-05-05T08:19:45.414Z,30.00
2023-05-05T08:20:45.106Z,29.99
2023-05-05T08:21:45.176Z,30.00
2023-05-05T08:22:45.333Z,30.26
2023-05-05T08:23:45.305Z,30.23
2023-05-05T08:24:45.312Z,30.11
2023-05-05T08:25:45.347Z,30.04
2023-05-05T08:26:45.423Z,30.01
2023-05-05T08:27:45.474Z,29.97
2023-05-05T08:28:45.506Z,30.04
2023-05-05T08:29:45.557Z,29.97
2023-05-05T08:30:45.688Z,30.03
2023-05-05T08:31:45.611Z,29.97
2023-05-05T08:32:45.616Z,29.87
2023-05-05T08:33:45.572Z,29.94
2023-05-05T08:34:45.583Z,30.08
2023-05-05T08:35:45.556Z,30.28
2023-05-05T08:36:45.571Z,30.42
2023-05-05T08:37:45.570Z,30.56
2023-05-05T08:38:45.578Z,30.68
2023-05-05T08:39:45.607Z,30.66
2023-05-05T08:40:45.580Z,30.94
2023-05-05T08:41:45.602Z,30.97
2023-05-05T08:42:45.662Z,30.82
2023-05-05T08:43:45.698Z,30.80
2023-05-05T08:44:45.770Z,30.72
2023-05-05T08:45:45.833Z,30.72
2023-05-05T08:46:46.146Z,30.70
2023-05-05T08:47:46.489Z,30.78
2023-05-05T08:48:46.009Z,30.73
2023-05-05T08:49:46.092Z,30.69
2023-05-05T08:50:46.142Z,30.68
2023-05-05T08:51:46.195Z,30.76
2023-05-05T08:52:46.848Z,30.69
2023-05-05T08:53:46.257Z,30.84
2023-05-05T08:54:46.449Z,30.50
2023-05-05T08:55:46.437Z,30.45
2023-05-05T08:56:46.383Z,30.23
2023-05-05T08:57:46.416Z,30.09
2023-05-05T08:58:46.460Z,30.12
2023-05-05T08:59:46.479Z,30.05
2023-05-05T09:00:46.557Z,30.01
2023-05-05T09:01:46.538Z,29.80
2023-05-05T09:02:46.712Z,29.77
2023-05-05T09:03:46.607Z,29.76
2023-05-05T09:04:46.607Z,29.83
2023-05-05T09:05:46.655Z,29.69
2023-05-05T09:06:46.647Z,29.71
2023-05-05T09:07:46.697Z,29.79
2023-05-05T09:08:46.729Z,29.72
2023-05-05T09:09:46.801Z,30.02
2023-05-05T09:10:46.764Z,30.12
2023-05-05T09:11:46.748Z,30.17
2023-05-05T09:12:46.826Z,30.11
2023-05-05T09:13:46.775Z,30.16
2023-05-05T09:14:46.786Z,30.18
2023-05-05T09:15:46.812Z,30.08
2023-05-05T09:16:46.878Z,29.87
2023-05-05T09:17:46.850Z,29.73
2023-05-05T09:18:46.849Z,29.77
2023-05-05T09:19:46.869Z,29.74
2023-05-05T09:20:46.854Z,29.47
2023-05-05T09:21:46.876Z,29.47
2023-05-05T09:22:46.932Z,29.38
2023-05-05T09:23:46.888Z,29.54
2023-05-05T09:24:46.907Z,29.85
2023-05-05T09:25:46.916Z,29.73
2023-05-05T09:26:46.961Z,29.83
2023-05-05T09:27:47.020Z,29.69
2023-05-05T09:28:47.018Z,29.43
2023-05-05T09:29:46.987Z,29.40
2023-05-05T09:30:47.038Z,29.43
2023-05-05T09:31:47.021Z,28.99
2023-05-05T09:32:47.537Z,28.95
2023-05-05T09:33:46.998Z,29.17
2023-05-05T09:34:47.069Z,29.15
2023-05-05T09:35:47.005Z,28.99
2023-05-05T09:36:47.026Z,28.90
2023-05-05T09:37:47.454Z,28.99
2023-05-05T09:38:47.090Z,29.14
2023-05-05T09:39:47.064Z,29.14
2023-05-05T09:40:47.076Z,29.33
2023-05-05T09:41:47.104Z,29.44
2023-05-05T09:42:47.095Z,29.75
2023-05-05T09:43:47.125Z,29.80
2023-05-05T09:44:47.113Z,29.92
2023-05-05T09:45:47.146Z,30.04
2023-05-05T09:46:47.250Z,30.10
2023-05-05T09:47:47.344Z,30.20
2023-05-05T09:48:47.203Z,30.34
2023-05-05T09:49:47.182Z,30.34
2023-05-05T09:50:47.211Z,30.55
2023-05-05T09:51:47.197Z,30.44
2023-05-05T09:52:48.121Z,30.49
2023-05-05T09:53:47.218Z,30.44
2023-05-05T09:54:47.250Z,30.53
2023-05-05T09:55:47.271Z,30.53
2023-05-05T09:56:47.265Z,30.63
2023-05-05T09:57:47.482Z,30.64
2023-05-05T09:58:47.341Z,30.64
2023-05-05T09:59:47.308Z,30.64
2023-05-05T10:00:47.327Z,30.57
2023-05-05T10:01:47.400Z,30.73
2023-05-05T10:02:47.380Z,30.71
2023-05-05T10:03:47.350Z,30.72
2023-05-05T10:04:47.556Z,30.76
2023-05-05T10:05:47.414Z,30.82
2023-05-05T10:06:47.472Z,30.73
2023-05-05T10:07:47.448Z,30.69
2023-05-05T10:08:47.459Z,30.98
2023-05-05T10:09:47.468Z,30.82
2023-05-05T10:10:47.489Z,30.80
2023-05-05T10:11:47.531Z,30.73
2023-05-05T10:12:47.571Z,30.64
2023-05-05T10:13:47.521Z,30.60
2023-05-05T10:14:47.536Z,30.59
2023-05-05T10:15:47.596Z,30.50
2023-05-05T10:16:47.719Z,30.46
2023-05-05T10:17:54.306Z,30.12
2023-05-05T10:18:48.574Z,29.99
2023-05-05T10:19:47.567Z,28.83
2023-05-05T10:20:47.571Z,28.35
2023-05-05T10:21:47.622Z,27.92
2023-05-05T10:22:47.594Z,28.10
2023-05-05T10:23:47.534Z,27.93
2023-05-05T10:24:47.518Z,27.65
2023-05-05T10:25:47.497Z,27.30
2023-05-05T10:26:47.513Z,27.57
2023-05-05T10:27:47.506Z,27.39
2023-05-05T10:28:47.489Z,27.28
2023-05-05T10:29:47.516Z,27.11
2023-05-05T10:30:47.470Z,27.21
2023-05-05T10:31:47.503Z,27.32
2023-05-05T10:33:00.512Z,26.93
2023-05-05T10:33:48.550Z,26.98
2023-05-05T10:34:47.468Z,26.93
2023-05-05T10:35:47.485Z,26.82
2023-05-05T10:36:47.441Z,26.89
2023-05-05T10:37:47.454Z,26.84
2023-05-05T10:38:47.480Z,27.08
2023-05-05T10:39:47.428Z,26.81
2023-05-05T10:40:47.400Z,27.01
2023-05-05T10:41:47.418Z,27.10
2023-05-05T10:42:47.441Z,26.98
2023-05-05T10:43:47.406Z,27.05
2023-05-05T10:44:47.388Z,26.98
2023-05-05T10:45:47.442Z,27.10
2023-05-05T10:46:47.379Z,27.25
2023-05-05T10:47:47.487Z,27.28
2023-05-05T10:48:47.444Z,27.35
2023-05-05T10:49:47.359Z,27.46
2023-05-05T10:50:47.342Z,27.52
2023-05-05T10:51:47.331Z,27.58
2023-05-05T10:52:47.369Z,27.69
2023-05-05T10:53:47.348Z,27.71
2023-05-05T10:54:47.423Z,27.84
2023-05-05T10:55:47.388Z,27.98
2023-05-05T10:56:47.414Z,27.99
2023-05-05T10:57:47.398Z,28.05
2023-05-05T10:58:59.251Z,28.06
2023-05-05T10:59:48.502Z,28.12
2023-05-05T11:00:47.427Z,28.18
2023-05-05T11:01:47.401Z,28.16
2023-05-05T11:02:47.411Z,28.24
2023-05-05T11:03:47.453Z,28.18
2023-05-05T11:04:47.407Z,28.18
2023-05-05T11:05:47.390Z,28.13
2023-05-05T11:06:47.382Z,28.20
2023-05-05T11:07:47.383Z,28.23
2023-05-05T11:08:47.364Z,28.25
2023-05-05T11:09:47.496Z,28.28
2023-05-05T11:10:47.358Z,28.20
2023-05-05T11:11:47.366Z,28.22
2023-05-05T11:12:47.480Z,28.26
2023-05-05T11:13:47.510Z,28.04
2023-05-05T11:14:47.501Z,28.04
2023-05-05T11:15:47.533Z,27.98
2023-05-05T11:16:47.853Z,27.54
2023-05-05T11:17:47.672Z,27.48
2023-05-05T11:18:47.629Z,27.56
2023-05-05T11:19:48.005Z,27.50
2023-05-05T11:20:47.682Z,27.31
2023-05-05T11:21:47.702Z,27.04
2023-05-05T11:22:47.745Z,26.96
2023-05-05T11:23:47.744Z,26.82
2023-05-05T11:24:47.755Z,26.40
2023-05-05T11:25:47.773Z,26.44
2023-05-05T11:26:47.869Z,26.23
2023-05-05T11:27:47.826Z,26.29
2023-05-05T11:28:47.835Z,26.07
2023-05-05T11:29:48.417Z,26.05
2023-05-05T11:30:47.891Z,26.09
2023-05-05T11:31:47.908Z,25.93
2023-05-05T11:32:47.867Z,25.91
2023-05-05T11:33:47.879Z,25.90
2023-05-05T11:34:47.894Z,26.11
2023-05-05T11:35:47.884Z,26.10
2023-05-05T11:36:47.911Z,26.12
2023-05-05T11:37:47.924Z,26.28
2023-05-05T11:38:47.938Z,26.33
2023-05-05T11:39:47.968Z,26.54
2023-05-05T11:40:47.947Z,26.67
2023-05-05T11:41:47.958Z,26.00
2023-05-05T11:42:48.041Z,26.03
2023-05-05T11:43:47.992Z,25.90
2023-05-05T11:44:48.032Z,26.15
2023-05-05T11:45:48.166Z,26.07
2023-05-05T11:46:48.056Z,26.07
2023-05-05T11:47:48.082Z,26.02
2023-05-05T11:48:48.073Z,25.86
2023-05-05T11:49:48.086Z,25.94
2023-05-05T11:50:48.084Z,25.83
2023-05-05T11:51:48.101Z,26.00
2023-05-05T11:52:48.110Z,26.07
2023-05-05T11:53:48.120Z,26.10
2023-05-05T11:54:48.214Z,26.11
2023-05-05T11:55:48.152Z,26.31
2023-05-05T11:56:48.329Z,26.39
2023-05-05T11:57:48.205Z,26.53
2023-05-05T11:58:48.324Z,26.54
2023-05-05T11:59:49.512Z,26.68
2023-05-05T12:00:48.300Z,26.94
2023-05-05T12:01:48.325Z,26.86
2023-05-05T12:02:48.438Z,26.87
2023-05-05T12:03:48.554Z,26.93
2023-05-05T12:04:48.520Z,27.06
2023-05-05T12:05:48.554Z,26.98
2023-05-05T12:06:48.550Z,27.12
2023-05-05T12:07:48.618Z,27.20
2023-05-05T12:08:48.652Z,27.01
2023-05-05T12:09:48.692Z,27.21
2023-05-05T12:10:48.749Z,27.13
2023-05-05T12:11:48.749Z,27.14
2023-05-05T12:12:48.831Z,27.19
2023-05-05T12:13:48.869Z,27.27
2023-05-05T12:14:48.965Z,27.24
2023-05-05T12:15:48.940Z,27.21
2023-05-05T12:16:48.988Z,27.22
2023-05-05T12:17:49.133Z,27.34
2023-05-05T12:18:49.108Z,27.30
2023-05-05T12:19:49.163Z,27.33
2023-05-05T12:20:49.197Z,27.37
2023-05-05T12:21:49.280Z,27.45
2023-05-05T12:22:49.335Z,27.28
2023-05-05T12:23:49.369Z,27.20
2023-05-05T12:24:49.430Z,27.35
2023-05-05T12:25:49.491Z,27.21
2023-05-05T12:26:49.531Z,27.11
2023-05-05T12:27:49.585Z,27.16
2023-05-05T12:28:49.655Z,27.18
2023-05-05T12:29:49.700Z,27.18
2023-05-05T12:30:49.902Z,27.22
2023-05-05T12:31:49.850Z,27.07
2023-05-05T12:32:49.875Z,27.13
2023-05-05T12:33:49.922Z,27.06
2023-05-05T12:34:49.966Z,27.16
2023-05-05T12:35:50.011Z,27.17
2023-05-05T12:36:50.086Z,27.10
2023-05-05T12:37:50.129Z,26.22
2023-05-05T12:38:50.149Z,26.11
2023-05-05T12:39:50.222Z,26.26
2023-05-05T12:40:50.237Z,26.34
2023-05-05T12:41:50.274Z,26.35
2023-05-05T12:42:50.345Z,26.40
2023-05-05T12:43:50.395Z,26.58
2023-05-05T12:44:50.461Z,26.64
2023-05-05T12:45:50.504Z,26.06
2023-05-05T12:46:50.525Z,25.92
2023-05-05T12:47:50.616Z,25.89
2023-05-05T12:48:50.632Z,25.85
2023-05-05T12:49:50.675Z,25.86
2023-05-05T12:50:50.745Z,25.90
2023-05-05T12:51:50.766Z,25.93
2023-05-05T12:52:50.802Z,25.99